Esther, Alberta

Past 24 Hour Conditions

This table is a summary of hourly weather conditions for the past 24 hours. This summary includes the following parameters: temperature, humidity, dew point, wind speed and direction, air pressure, visibility and/or wind chill and humidex.
Date / Time
(MDT)
Conditions Temp (°F) Humidity (%) Dew Point (°F) Wind (mph) Pressure (inches) Visibility (miles)
23 April 2014
11:00 N/A 44 93 42 ESE 5 29.4 N/A
10:00 N/A 43   93 41 E 9 29.4 N/A
9:00 N/A 43   92 41 E 11 29.4 N/A
8:00 N/A 43   91 41 E 12 29.4 N/A
7:00 N/A 43   91 40 E 15 29.4 N/A
6:00 N/A 43   89 40 E 15 29.4 N/A
5:00 N/A 44 90 41 E 17 29.4 N/A
4:00 N/A 45 89 42 E 15 gust 21 29.4 N/A
3:00 N/A 47 91 44 E 14 29.4 N/A
2:00 N/A 52 49 33 E 11 29.4 N/A
1:00 N/A 53 45 32 E 17 gust 25 29.4 N/A
00:00 N/A 55 39 31 E 17 gust 25 29.4 N/A
22 April 2014
23:00 N/A 59 32 29 E 25 gust 32 29.4 N/A
22:00 N/A 59 31 29 E 25 gust 31 29.4 N/A
21:00 N/A 61 29 29 E 23 gust 33 29.5 N/A
20:00 N/A 64 24 27 E 24 29.5 N/A
19:00 N/A 68 20 25 E 24 gust 33 29.5 N/A
18:00 N/A 72 15 22 E 26 gust 32 29.5 N/A
17:00 N/A 74 14 22 E 25 29.5 N/A
16:00 N/A 74 14 22 ESE 23 gust 35 29.5 N/A
15:00 N/A 75   14 22 ESE 25 gust 34 29.5 N/A
14:00 N/A 74 13 21 SE 23 gust 34 29.6 N/A
13:00 N/A 70 18 24 E 23 gust 31 29.6 N/A
12:00 N/A 67 21 25 ESE 21 gust 29 29.6 N/A
11:00 N/A 62 27 28 E 20 gust 25 29.7 N/A
N/A
Not available
 ↑ 
Highest temperature
 ↓ 
Lowest temperature

If you require additional historical weather information, please visit Climate Data Online.